PWSweather.com
Personal Weather Stations
Station Observations
KCTHAMDEN
Dunbar Hill, Hamden, CT 06514

Dunbar HillHamden, CT 06514

Lat: 41.365437, Lon: -72.956532

Elevation: 200

Station Type: Davis Vantage Pro2+

www.hamdenweather.com

High Low Average
Temperature 76.4°F24.7°C 64.8°F18.2°C 71.4°F21.9°C
Dew Point 67.5°F19.7°C 58.8°F14.9°C 63.2°F17.3°C
Winds 5.3 mph 8.5 kmh Calm Calm 1.0 mph SE1.6 kmh SE
Wind Gusts 9.0 mph14.5 kmh -- 3.0 mph4.8 kmh
Humidity 84% 66% 76%
Pressure 30.29 in1025.7 mb 30.17 in1021.7 mb -
Precipitation 0.00 in0.0 mm - -
Hour Temp Dew Point Humidity Winds Wind Gusts Pressure Precip Precip Rate Daily Precip Total
12:00 AM 73.4°F23.0°C 64.6°F18.1°C 74% 1.5 mph WSW2.4 kmh WSW 3.0 mph4.8 kmh 30.15 in1021.0 mb - 0.00 in0.0 mm 0.00 in0.0 mm
12:15 AM 73.2°F22.9°C 64.4°F18.0°C 74% 3.0 mph N4.8 kmh N 8.0 mph12.9 kmh 30.16 in1021.3 mb - 0.00 in0.0 mm 0.00 in0.0 mm
12:30 AM 72.9°F22.7°C 64.2°F17.9°C 74% 1.6 mph WSW2.6 kmh WSW 5.0 mph8.0 kmh 30.16 in1021.3 mb - 0.00 in0.0 mm 0.00 in0.0 mm
12:45 AM 72.5°F22.5°C 64.1°F17.8°C 75% 1.4 mph WSW2.3 kmh WSW 2.0 mph3.2 kmh 30.16 in1021.3 mb - 0.00 in0.0 mm 0.00 in0.0 mm
01:00 AM 71.9°F22.2°C 63.9°F17.7°C 76% 0.9 mph WSW1.4 kmh WSW 2.0 mph3.2 kmh 30.17 in1021.7 mb - 0.00 in0.0 mm 0.00 in0.0 mm
01:15 AM 71.5°F21.9°C 63.5°F17.5°C 76% 2.3 mph WSW3.7 kmh WSW 3.0 mph4.8 kmh 30.17 in1021.7 mb - 0.00 in0.0 mm 0.00 in0.0 mm
01:30 AM 71.2°F21.8°C 63.6°F17.6°C 77% 2.2 mph WSW3.5 kmh WSW 3.0 mph4.8 kmh 30.17 in1021.7 mb - 0.00 in0.0 mm 0.00 in0.0 mm
01:45 AM 71.0°F21.7°C 63.4°F17.4°C 77% 0.7 mph WSW1.1 kmh WSW 2.0 mph3.2 kmh 30.18 in1022.0 mb - 0.00 in0.0 mm 0.00 in0.0 mm
02:00 AM 70.8°F21.6°C 63.2°F17.3°C 77% 0.1 mph WSW0.2 kmh WSW 1.0 mph1.6 kmh 30.18 in1022.0 mb - 0.00 in0.0 mm 0.00 in0.0 mm
02:15 AM 70.4°F21.3°C 62.5°F16.9°C 76% 0.3 mph NNE0.5 kmh NNE 3.0 mph4.8 kmh 30.19 in1022.4 mb - 0.00 in0.0 mm 0.00 in0.0 mm
02:30 AM 70.1°F21.2°C 62.6°F17.0°C 77% 1.6 mph WSW2.6 kmh WSW 4.0 mph6.4 kmh 30.19 in1022.4 mb - 0.00 in0.0 mm 0.00 in0.0 mm
02:45 AM 69.8°F21.0°C 61.9°F16.6°C 76% 2.1 mph NE3.4 kmh NE 3.0 mph4.8 kmh 30.20 in1022.7 mb - 0.00 in0.0 mm 0.00 in0.0 mm
03:00 AM 69.6°F20.9°C 61.7°F16.5°C 76% 0.4 mph SW0.6 kmh SW -- 30.20 in1022.7 mb - 0.00 in0.0 mm 0.00 in0.0 mm
03:15 AM 69.3°F20.7°C 61.8°F16.6°C 77% 0.6 mph WSW1.0 kmh WSW 3.0 mph4.8 kmh 30.20 in1022.7 mb - 0.00 in0.0 mm 0.00 in0.0 mm
03:30 AM 69.0°F20.6°C 61.1°F16.2°C 76% 0.5 mph SW0.8 kmh SW 6.0 mph9.7 kmh 30.20 in1022.7 mb - 0.00 in0.0 mm 0.00 in0.0 mm
03:45 AM 68.4°F20.2°C 60.9°F16.1°C 77% 2.2 mph SW3.5 kmh SW 4.0 mph6.4 kmh 30.20 in1022.7 mb - 0.00 in0.0 mm 0.00 in0.0 mm
04:00 AM 67.9°F19.9°C 60.8°F16.0°C 78% 0.8 mph SW1.3 kmh SW 3.0 mph4.8 kmh 30.21 in1023.0 mb - 0.00 in0.0 mm 0.00 in0.0 mm
04:15 AM 67.5°F19.7°C 60.4°F15.8°C 78% 1.2 mph N1.9 kmh N 4.0 mph6.4 kmh 30.21 in1023.0 mb - 0.00 in0.0 mm 0.00 in0.0 mm
04:30 AM 67.2°F19.6°C 60.5°F15.8°C 79% 0.1 mph N0.2 kmh N -- 30.21 in1023.0 mb - 0.00 in0.0 mm 0.00 in0.0 mm
04:45 AM 67.0°F19.4°C 60.6°F15.9°C 80% 0.3 mph WNW0.5 kmh WNW 4.0 mph6.4 kmh 30.22 in1023.4 mb - 0.00 in0.0 mm 0.00 in0.0 mm
05:00 AM 66.6°F19.2°C 59.9°F15.5°C 79% 0.3 mph NE0.5 kmh NE -- 30.23 in1023.7 mb - 0.00 in0.0 mm 0.00 in0.0 mm
05:15 AM 66.3°F19.1°C 59.9°F15.5°C 80% Calm Calm -- 30.23 in1023.7 mb - 0.00 in0.0 mm 0.00 in0.0 mm
05:30 AM 66.0°F18.9°C 59.7°F15.4°C 80% 0.5 mph WSW0.8 kmh WSW 2.0 mph3.2 kmh 30.23 in1023.7 mb - 0.00 in0.0 mm 0.00 in0.0 mm
05:45 AM 65.7°F18.7°C 59.7°F15.4°C 81% Calm Calm -- 30.24 in1024.0 mb - 0.00 in0.0 mm 0.00 in0.0 mm
06:00 AM 65.3°F18.5°C 59.3°F15.2°C 81% Calm Calm -- 30.24 in1024.0 mb - 0.00 in0.0 mm 0.00 in0.0 mm
06:15 AM 65.2°F18.4°C 59.2°F15.1°C 81% 0.3 mph ESE0.5 kmh ESE 1.0 mph1.6 kmh 30.25 in1024.4 mb - 0.00 in0.0 mm 0.00 in0.0 mm
06:30 AM 64.9°F18.3°C 58.9°F14.9°C 81% 0.9 mph WSW1.4 kmh WSW 1.0 mph1.6 kmh 30.25 in1024.4 mb - 0.00 in0.0 mm 0.00 in0.0 mm
06:45 AM 64.8°F18.2°C 58.8°F14.9°C 81% 1.1 mph NE1.8 kmh NE 3.0 mph4.8 kmh 30.25 in1024.4 mb - 0.00 in0.0 mm 0.00 in0.0 mm
07:00 AM 64.8°F18.2°C 59.2°F15.1°C 82% 0.5 mph WSW0.8 kmh WSW 3.0 mph4.8 kmh 30.26 in1024.7 mb - 0.00 in0.0 mm 0.00 in0.0 mm
07:15 AM 64.9°F18.3°C 59.3°F15.2°C 82% Calm Calm -- 30.27 in1025.1 mb - 0.00 in0.0 mm 0.00 in0.0 mm
07:30 AM 65.0°F18.3°C 59.7°F15.4°C 83% Calm Calm 1.0 mph1.6 kmh 30.27 in1025.1 mb - 0.00 in0.0 mm 0.00 in0.0 mm
07:45 AM 65.2°F18.4°C 59.9°F15.5°C 83% 0.1 mph NNE0.2 kmh NNE 1.0 mph1.6 kmh 30.28 in1025.4 mb - 0.00 in0.0 mm 0.00 in0.0 mm
08:00 AM 65.6°F18.7°C 60.7°F15.9°C 84% 1.2 mph WSW1.9 kmh WSW 3.0 mph4.8 kmh 30.28 in1025.4 mb - 0.00 in0.0 mm 0.00 in0.0 mm
08:15 AM 67.1°F19.5°C 61.4°F16.3°C 82% 2.2 mph NE3.5 kmh NE 4.0 mph6.4 kmh 30.28 in1025.4 mb - 0.00 in0.0 mm 0.00 in0.0 mm
08:30 AM 68.8°F20.4°C 61.6°F16.4°C 78% 1.8 mph NE2.9 kmh NE 6.0 mph9.7 kmh 30.28 in1025.4 mb - 0.00 in0.0 mm 0.00 in0.0 mm
08:45 AM 69.7°F20.9°C 61.8°F16.6°C 76% 2.6 mph ENE4.2 kmh ENE 6.0 mph9.7 kmh 30.28 in1025.4 mb - 0.00 in0.0 mm 0.00 in0.0 mm
09:00 AM 70.5°F21.4°C 62.2°F16.8°C 75% 5.3 mph NE8.5 kmh NE 5.0 mph8.0 kmh 30.29 in1025.7 mb - 0.00 in0.0 mm 0.00 in0.0 mm
09:15 AM 71.3°F21.8°C 62.6°F17.0°C 74% 1.6 mph NE2.6 kmh NE 4.0 mph6.4 kmh 30.29 in1025.7 mb - 0.00 in0.0 mm 0.00 in0.0 mm
09:30 AM 71.8°F22.1°C 62.7°F17.1°C 73% 3.4 mph ESE5.5 kmh ESE 5.0 mph8.0 kmh 30.28 in1025.4 mb - 0.00 in0.0 mm 0.00 in0.0 mm
09:45 AM 71.5°F21.9°C 63.2°F17.3°C 75% 4.2 mph ESE6.8 kmh ESE 8.0 mph12.9 kmh 30.28 in1025.4 mb - 0.00 in0.0 mm 0.00 in0.0 mm
10:00 AM 73.5°F23.1°C 64.3°F17.9°C 73% 4.0 mph E6.4 kmh E 9.0 mph14.5 kmh 30.28 in1025.4 mb - 0.00 in0.0 mm 0.00 in0.0 mm
10:15 AM 74.2°F23.4°C 63.8°F17.7°C 70% 4.8 mph SE7.7 kmh SE 7.0 mph11.3 kmh 30.29 in1025.7 mb - 0.00 in0.0 mm 0.00 in0.0 mm
10:30 AM 73.8°F23.2°C 63.8°F17.7°C 71% 2.4 mph SW3.9 kmh SW 4.0 mph6.4 kmh 30.29 in1025.7 mb - 0.00 in0.0 mm 0.00 in0.0 mm
10:45 AM 73.9°F23.3°C 63.9°F17.7°C 71% Calm Calm 1.0 mph1.6 kmh 30.29 in1025.7 mb - 0.00 in0.0 mm 0.00 in0.0 mm
11:00 AM 74.1°F23.4°C 64.1°F17.8°C 71% 0.3 mph E0.5 kmh E 2.0 mph3.2 kmh 30.29 in1025.7 mb - 0.00 in0.0 mm 0.00 in0.0 mm
11:15 AM 74.9°F23.8°C 64.9°F18.3°C 71% 1.4 mph E2.3 kmh E 3.0 mph4.8 kmh 30.29 in1025.7 mb - 0.00 in0.0 mm 0.00 in0.0 mm
11:30 AM 76.0°F24.4°C 65.5°F18.6°C 70% 4.4 mph E7.1 kmh E 7.0 mph11.3 kmh 30.29 in1025.7 mb - 0.00 in0.0 mm 0.00 in0.0 mm
11:45 AM 76.4°F24.7°C 64.6°F18.1°C 67% 1.8 mph SE2.9 kmh SE 2.0 mph3.2 kmh 30.29 in1025.7 mb - 0.00 in0.0 mm 0.00 in0.0 mm
12:00 PM 76.1°F24.5°C 63.9°F17.7°C 66% 2.5 mph WSW4.0 kmh WSW 4.0 mph6.4 kmh 30.28 in1025.4 mb - 0.00 in0.0 mm 0.00 in0.0 mm
12:15 PM 76.0°F24.4°C 64.7°F18.2°C 68% 2.1 mph NE3.4 kmh NE 4.0 mph6.4 kmh 30.28 in1025.4 mb - 0.00 in0.0 mm 0.00 in0.0 mm
12:30 PM 76.1°F24.5°C 64.8°F18.2°C 68% 1.9 mph WSW3.1 kmh WSW 5.0 mph8.0 kmh 30.28 in1025.4 mb - 0.00 in0.0 mm 0.00 in0.0 mm
12:45 PM 75.8°F24.3°C 65.7°F18.7°C 71% 1.2 mph ENE1.9 kmh ENE 2.0 mph3.2 kmh 30.27 in1025.1 mb - 0.00 in0.0 mm 0.00 in0.0 mm
01:00 PM 76.0°F24.4°C 65.5°F18.6°C 70% 0.3 mph ESE0.5 kmh ESE -- 30.28 in1025.4 mb - 0.00 in0.0 mm 0.00 in0.0 mm
01:15 PM 75.6°F24.2°C 65.5°F18.6°C 71% 1.2 mph E1.9 kmh E 2.0 mph3.2 kmh 30.28 in1025.4 mb - 0.00 in0.0 mm 0.00 in0.0 mm
01:30 PM 75.3°F24.1°C 65.2°F18.4°C 71% Calm Calm -- 30.28 in1025.4 mb - 0.00 in0.0 mm 0.00 in0.0 mm
01:45 PM 75.6°F24.2°C 66.0°F18.9°C 72% 2.6 mph E4.2 kmh E 7.0 mph11.3 kmh 30.28 in1025.4 mb - 0.00 in0.0 mm 0.00 in0.0 mm
02:00 PM 75.7°F24.3°C 66.0°F18.9°C 72% 4.1 mph WSW6.6 kmh WSW 8.0 mph12.9 kmh 30.28 in1025.4 mb - 0.00 in0.0 mm 0.00 in0.0 mm
02:15 PM 75.3°F24.1°C 66.0°F18.9°C 73% 1.5 mph NE2.4 kmh NE 5.0 mph8.0 kmh 30.27 in1025.1 mb - 0.00 in0.0 mm 0.00 in0.0 mm
02:30 PM 75.3°F24.1°C 66.0°F18.9°C 73% 0.4 mph NE0.6 kmh NE -- 30.28 in1025.4 mb - 0.00 in0.0 mm 0.00 in0.0 mm
02:45 PM 75.3°F24.1°C 66.0°F18.9°C 73% 3.0 mph E4.8 kmh E 7.0 mph11.3 kmh 30.28 in1025.4 mb - 0.00 in0.0 mm 0.00 in0.0 mm
03:00 PM 75.1°F23.9°C 65.5°F18.6°C 72% Calm Calm 1.0 mph1.6 kmh 30.28 in1025.4 mb - 0.00 in0.0 mm 0.00 in0.0 mm
03:15 PM 75.4°F24.1°C 66.1°F18.9°C 73% 0.3 mph SE0.5 kmh SE -- 30.27 in1025.1 mb - 0.00 in0.0 mm 0.00 in0.0 mm
03:30 PM 75.3°F24.1°C 65.2°F18.4°C 71% 0.6 mph E1.0 kmh E -- 30.28 in1025.4 mb - 0.00 in0.0 mm 0.00 in0.0 mm
03:45 PM 75.0°F23.9°C 65.8°F18.8°C 73% 0.8 mph E1.3 kmh E 2.0 mph3.2 kmh 30.28 in1025.4 mb - 0.00 in0.0 mm 0.00 in0.0 mm
04:00 PM 75.1°F23.9°C 66.2°F19.0°C 74% Calm Calm -- 30.28 in1025.4 mb - 0.00 in0.0 mm 0.00 in0.0 mm
04:15 PM 74.9°F23.8°C 66.8°F19.3°C 76% Calm Calm -- 30.28 in1025.4 mb - 0.00 in0.0 mm 0.00 in0.0 mm
04:30 PM 74.9°F23.8°C 67.5°F19.7°C 78% 1.1 mph ESE1.8 kmh ESE 3.0 mph4.8 kmh 30.28 in1025.4 mb - 0.00 in0.0 mm 0.00 in0.0 mm
04:45 PM 74.7°F23.7°C 67.3°F19.6°C 78% 0.6 mph E1.0 kmh E 1.0 mph1.6 kmh 30.28 in1025.4 mb - 0.00 in0.0 mm 0.00 in0.0 mm
05:00 PM 74.6°F23.7°C 66.5°F19.2°C 76% Calm Calm -- 30.27 in1025.1 mb - 0.00 in0.0 mm 0.00 in0.0 mm
05:15 PM 74.4°F23.6°C 66.0°F18.9°C 75% 0.1 mph SE0.2 kmh SE 3.0 mph4.8 kmh 30.28 in1025.4 mb - 0.00 in0.0 mm 0.00 in0.0 mm
05:30 PM 74.1°F23.4°C 65.7°F18.7°C 75% 1.4 mph E2.3 kmh E 3.0 mph4.8 kmh 30.28 in1025.4 mb - 0.00 in0.0 mm 0.00 in0.0 mm
05:45 PM 73.4°F23.0°C 65.0°F18.3°C 75% 1.6 mph E2.6 kmh E 3.0 mph4.8 kmh 30.28 in1025.4 mb - 0.00 in0.0 mm 0.00 in0.0 mm
06:00 PM 73.0°F22.8°C 65.0°F18.3°C 76% 3.2 mph E5.1 kmh E 8.0 mph12.9 kmh 30.28 in1025.4 mb - 0.00 in0.0 mm 0.00 in0.0 mm
06:15 PM 72.6°F22.6°C 64.6°F18.1°C 76% 0.6 mph E1.0 kmh E 2.0 mph3.2 kmh 30.29 in1025.7 mb - 0.00 in0.0 mm 0.00 in0.0 mm
06:30 PM 72.3°F22.4°C 64.3°F17.9°C 76% 0.1 mph SE0.2 kmh SE 1.0 mph1.6 kmh 30.29 in1025.7 mb - 0.00 in0.0 mm 0.00 in0.0 mm
06:45 PM 71.7°F22.1°C 63.7°F17.6°C 76% 1.2 mph ESE1.9 kmh ESE 4.0 mph6.4 kmh 30.28 in1025.4 mb - 0.00 in0.0 mm 0.00 in0.0 mm
07:00 PM 71.3°F21.8°C 63.4°F17.4°C 76% Calm Calm -- 30.29 in1025.7 mb - 0.00 in0.0 mm 0.00 in0.0 mm
07:15 PM 71.0°F21.7°C 63.4°F17.4°C 77% 1.5 mph ESE2.4 kmh ESE 2.0 mph3.2 kmh 30.28 in1025.4 mb - 0.00 in0.0 mm 0.00 in0.0 mm
07:30 PM 70.8°F21.6°C 63.2°F17.3°C 77% 0.6 mph ENE1.0 kmh ENE 3.0 mph4.8 kmh 30.29 in1025.7 mb - 0.00 in0.0 mm 0.00 in0.0 mm
07:45 PM 70.6°F21.4°C 63.0°F17.2°C 77% 0.2 mph ENE0.3 kmh ENE 1.0 mph1.6 kmh 30.28 in1025.4 mb - 0.00 in0.0 mm 0.00 in0.0 mm
08:00 PM 70.4°F21.3°C 62.8°F17.1°C 77% 0.1 mph ESE0.2 kmh ESE -- 30.29 in1025.7 mb - 0.00 in0.0 mm 0.00 in0.0 mm
08:15 PM 70.3°F21.3°C 63.1°F17.3°C 78% 1.7 mph E2.7 kmh E 3.0 mph4.8 kmh 30.30 in1026.1 mb - 0.00 in0.0 mm 0.00 in0.0 mm
08:30 PM 69.9°F21.1°C 62.8°F17.1°C 78% 2.1 mph ESE3.4 kmh ESE 8.0 mph12.9 kmh 30.30 in1026.1 mb - 0.00 in0.0 mm 0.00 in0.0 mm
08:45 PM 69.7°F20.9°C 62.9°F17.2°C 79% 1.5 mph ENE2.4 kmh ENE 6.0 mph9.7 kmh 30.30 in1026.1 mb - 0.00 in0.0 mm 0.00 in0.0 mm
09:00 PM 69.5°F20.8°C 63.1°F17.3°C 80% 0.1 mph SE0.2 kmh SE 6.0 mph9.7 kmh 30.31 in1026.4 mb - 0.00 in0.0 mm 0.00 in0.0 mm
09:15 PM 69.3°F20.7°C 63.2°F17.3°C 81% 1.1 mph ENE1.8 kmh ENE 3.0 mph4.8 kmh 30.31 in1026.4 mb - 0.00 in0.0 mm 0.00 in0.0 mm
09:30 PM 69.0°F20.6°C 63.0°F17.2°C 81% 2.5 mph ENE4.0 kmh ENE 4.0 mph6.4 kmh 30.31 in1026.4 mb - 0.00 in0.0 mm 0.00 in0.0 mm
09:45 PM 68.8°F20.4°C 63.1°F17.3°C 82% 0.9 mph E1.4 kmh E 1.0 mph1.6 kmh 30.31 in1026.4 mb - 0.00 in0.0 mm 0.00 in0.0 mm
10:00 PM 68.6°F20.3°C 63.2°F17.3°C 83% 1.2 mph E1.9 kmh E 1.0 mph1.6 kmh 30.31 in1026.4 mb - 0.00 in0.0 mm 0.00 in0.0 mm
10:15 PM 68.4°F20.2°C 63.3°F17.4°C 84% 1.3 mph E2.1 kmh E 2.0 mph3.2 kmh 30.32 in1026.8 mb - 0.00 in0.0 mm 0.00 in0.0 mm
10:30 PM 68.3°F20.2°C 63.3°F17.4°C 84% 0.3 mph E0.5 kmh E 2.0 mph3.2 kmh 30.32 in1026.8 mb - 0.00 in0.0 mm 0.00 in0.0 mm
10:45 PM 68.2°F20.1°C 63.5°F17.5°C 85% 0.9 mph E1.4 kmh E 2.0 mph3.2 kmh 30.31 in1026.4 mb - 0.00 in0.0 mm 0.00 in0.0 mm
11:00 PM 68.1°F20.1°C 63.4°F17.4°C 85% 0.4 mph ENE0.6 kmh ENE 2.0 mph3.2 kmh 30.31 in1026.4 mb - 0.00 in0.0 mm 0.00 in0.0 mm
11:15 PM 68.0°F20.0°C 63.6°F17.6°C 86% 0.6 mph E1.0 kmh E 2.0 mph3.2 kmh 30.31 in1026.4 mb - 0.00 in0.0 mm 0.00 in0.0 mm
11:30 PM 67.8°F19.9°C 62.8°F17.1°C 84% 2.8 mph E4.5 kmh E 7.0 mph11.3 kmh 30.32 in1026.8 mb - 0.00 in0.0 mm 0.00 in0.0 mm
11:45 PM 67.6°F19.8°C 61.9°F16.6°C 82% 0.7 mph E1.1 kmh E 2.0 mph3.2 kmh 30.32 in1026.8 mb - 0.00 in0.0 mm 0.00 in0.0 mm